createdAt,value
2017-10-10T00:02:23.306Z,9.43
2017-10-10T00:04:51.139Z,10.03
2017-10-10T00:07:18.945Z,10.50
2017-10-10T00:09:46.690Z,10.27
2017-10-10T00:12:14.422Z,9.90
2017-10-10T00:14:42.231Z,10.43
2017-10-10T00:17:10.021Z,10.83
2017-10-10T00:19:37.757Z,12.00
2017-10-10T00:22:05.554Z,10.77
2017-10-10T00:24:33.297Z,12.07
2017-10-10T00:27:01.059Z,13.43
2017-10-10T00:29:28.798Z,12.87
2017-10-10T00:31:56.600Z,13.00
2017-10-10T00:34:24.428Z,13.77
2017-10-10T00:36:52.226Z,11.97
2017-10-10T00:39:20.008Z,12.40
2017-10-10T00:41:47.772Z,12.20
2017-10-10T00:44:15.570Z,12.27
2017-10-10T00:46:43.371Z,12.53
2017-10-10T00:49:11.197Z,10.70
2017-10-10T00:51:39.747Z,11.30
2017-10-10T00:54:07.500Z,10.30
2017-10-10T00:56:35.294Z,10.63
2017-10-10T00:59:03.083Z,11.73
2017-10-10T01:01:30.922Z,10.63
2017-10-10T01:03:58.739Z,10.90
2017-10-10T01:06:27.358Z,11.40
2017-10-10T01:08:55.115Z,10.60
2017-10-10T01:11:22.879Z,10.47
2017-10-10T01:13:50.600Z,10.57
2017-10-10T01:16:18.454Z,10.20
2017-10-10T01:18:46.263Z,11.40
2017-10-10T01:21:14.877Z,11.07
2017-10-10T01:23:42.699Z,10.03
2017-10-10T01:26:10.545Z,9.13
2017-10-10T01:28:38.372Z,8.20
2017-10-10T01:31:06.205Z,8.20
2017-10-10T01:33:33.981Z,6.20
2017-10-10T01:36:01.781Z,4.90
2017-10-10T01:38:29.623Z,6.47
2017-10-10T01:40:58.141Z,6.17
2017-10-10T01:43:25.918Z,6.83
2017-10-10T01:45:53.836Z,6.30
2017-10-10T01:48:22.411Z,6.10
2017-10-10T01:50:50.225Z,5.50
2017-10-10T01:53:17.986Z,4.60
2017-10-10T01:55:45.773Z,4.53
2017-10-10T01:58:13.573Z,4.20
2017-10-10T02:00:41.319Z,3.63
2017-10-10T02:03:09.066Z,4.10
2017-10-10T02:05:42.852Z,3.30
2017-10-10T02:08:10.654Z,3.73
2017-10-10T02:10:38.479Z,3.77
2017-10-10T02:13:06.279Z,3.30
2017-10-10T02:15:34.046Z,3.70
2017-10-10T02:18:01.847Z,3.97
2017-10-10T02:20:29.673Z,3.67
2017-10-10T02:22:57.436Z,4.20
2017-10-10T02:25:25.245Z,3.70
2017-10-10T02:27:52.996Z,3.20
2017-10-10T02:30:20.770Z,3.67
2017-10-10T02:32:48.493Z,3.40
2017-10-10T02:35:16.355Z,4.00
2017-10-10T02:37:44.119Z,3.70
2017-10-10T02:40:11.917Z,3.70
2017-10-10T02:42:39.696Z,3.47
2017-10-10T02:45:07.494Z,4.20
2017-10-10T02:47:35.204Z,3.83
2017-10-10T02:50:03.019Z,4.10
2017-10-10T02:52:30.796Z,5.00
2017-10-10T02:54:58.531Z,4.60
2017-10-10T02:57:26.400Z,3.77
2017-10-10T02:59:54.119Z,3.90
2017-10-10T03:02:21.891Z,4.17
2017-10-10T03:04:49.758Z,3.80
2017-10-10T03:07:17.550Z,4.20
2017-10-10T03:09:45.285Z,4.70
2017-10-10T03:12:13.828Z,4.53
2017-10-10T03:14:41.692Z,4.30
2017-10-10T03:17:09.427Z,4.03
2017-10-10T03:19:37.335Z,4.20
2017-10-10T03:22:05.052Z,3.87
2017-10-10T03:24:32.781Z,5.20
2017-10-10T03:27:00.589Z,3.67
2017-10-10T03:29:28.319Z,4.37
2017-10-10T03:31:56.812Z,3.90
2017-10-10T03:34:24.552Z,3.87
2017-10-10T03:36:52.272Z,4.33
2017-10-10T03:39:20.120Z,4.03
2017-10-10T03:41:48.036Z,4.47
2017-10-10T03:44:15.814Z,4.17
2017-10-10T03:46:43.531Z,4.17
2017-10-10T03:49:11.412Z,3.93
2017-10-10T03:51:39.159Z,4.00
2017-10-10T03:54:07.739Z,3.00
2017-10-10T03:56:35.539Z,3.60
2017-10-10T03:59:03.338Z,4.07
2017-10-10T04:01:31.115Z,3.93
2017-10-10T04:03:58.912Z,4.83
2017-10-10T04:06:27.421Z,4.40
2017-10-10T04:08:55.289Z,3.97
2017-10-10T04:11:23.095Z,4.50
2017-10-10T04:13:51.564Z,4.10
2017-10-10T04:16:19.393Z,6.33
2017-10-10T04:18:47.107Z,4.83
2017-10-10T04:21:14.884Z,4.70
2017-10-10T04:23:42.719Z,4.57
2017-10-10T04:26:10.488Z,5.10
2017-10-10T04:28:38.200Z,4.20
2017-10-10T04:31:06.084Z,5.13
2017-10-10T04:33:33.812Z,5.20
2017-10-10T04:36:01.604Z,5.70
2017-10-10T04:38:29.457Z,4.87
2017-10-10T04:40:57.399Z,4.37
2017-10-10T04:43:25.437Z,4.67
2017-10-10T04:45:53.319Z,3.60
2017-10-10T04:48:22.018Z,4.60
2017-10-10T04:50:51.731Z,4.57
2017-10-10T04:53:19.499Z,4.93
2017-10-10T04:55:47.412Z,5.07
2017-10-10T04:58:15.191Z,5.00
2017-10-10T05:00:42.921Z,4.00
2017-10-10T05:03:10.712Z,4.53
2017-10-10T05:05:38.883Z,3.90
2017-10-10T05:08:06.700Z,5.33
2017-10-10T05:10:34.972Z,4.70
2017-10-10T05:13:03.088Z,4.70
2017-10-10T05:15:30.871Z,5.60
2017-10-10T05:17:58.664Z,5.37
2017-10-10T05:20:27.379Z,5.03
2017-10-10T05:22:55.183Z,5.40
2017-10-10T05:25:22.916Z,5.40
2017-10-10T05:27:50.696Z,5.53
2017-10-10T05:30:18.472Z,4.67
2017-10-10T05:32:46.315Z,4.70
2017-10-10T05:35:14.205Z,4.87
2017-10-10T05:37:41.971Z,4.75
2017-10-10T05:40:09.770Z,4.90
2017-10-10T05:42:37.666Z,4.47
2017-10-10T05:45:05.496Z,4.53
2017-10-10T05:47:33.297Z,5.10
2017-10-10T05:50:01.108Z,4.90
2017-10-10T05:52:28.914Z,5.20
2017-10-10T05:54:56.734Z,4.37
2017-10-10T05:57:24.476Z,5.13
2017-10-10T05:59:53.017Z,3.80
2017-10-10T06:02:21.645Z,4.00
2017-10-10T06:04:49.360Z,4.10
2017-10-10T06:07:17.150Z,3.90
2017-10-10T06:09:44.937Z,4.33
2017-10-10T06:12:12.644Z,4.00
2017-10-10T06:14:40.356Z,4.47
2017-10-10T06:17:08.241Z,4.40
2017-10-10T06:19:36.007Z,3.60
2017-10-10T06:22:04.487Z,4.30
2017-10-10T06:24:32.301Z,3.67
2017-10-10T06:27:00.071Z,3.63
2017-10-10T06:29:27.848Z,4.27
2017-10-10T06:31:55.600Z,4.03
2017-10-10T06:34:23.383Z,4.60
2017-10-10T06:36:51.209Z,3.90
2017-10-10T06:39:20.025Z,4.47
2017-10-10T06:41:47.762Z,4.70
2017-10-10T06:44:17.281Z,4.80
2017-10-10T06:46:45.084Z,4.30
2017-10-10T06:49:12.820Z,4.70
2017-10-10T06:51:40.625Z,4.23
2017-10-10T06:54:08.414Z,4.10
2017-10-10T06:56:36.186Z,3.60
2017-10-10T06:59:03.991Z,4.63
2017-10-10T07:01:31.778Z,4.60
2017-10-10T07:04:00.435Z,3.80
2017-10-10T07:06:28.167Z,4.00
2017-10-10T07:08:55.892Z,4.70
2017-10-10T07:11:23.718Z,5.30
2017-10-10T07:13:52.269Z,5.77
2017-10-10T07:16:20.046Z,5.13
2017-10-10T07:18:47.832Z,6.43
2017-10-10T07:21:16.331Z,7.83
2017-10-10T07:23:44.043Z,6.60
2017-10-10T07:26:11.788Z,6.47
2017-10-10T07:28:39.592Z,6.97
2017-10-10T07:31:07.312Z,7.70
2017-10-10T07:33:35.194Z,7.70
2017-10-10T07:36:02.987Z,7.60
2017-10-10T07:38:30.697Z,7.50
2017-10-10T07:40:58.548Z,7.43
2017-10-10T07:43:26.324Z,7.97
2017-10-10T07:45:54.104Z,7.43
2017-10-10T07:48:22.022Z,7.97
2017-10-10T07:50:49.736Z,7.97
2017-10-10T07:53:17.545Z,8.27
2017-10-10T07:55:45.413Z,9.53
2017-10-10T07:58:13.212Z,10.53
2017-10-10T08:00:40.955Z,11.67
2017-10-10T08:03:08.737Z,9.80
2017-10-10T08:05:36.475Z,10.23
2017-10-10T08:08:04.264Z,9.47
2017-10-10T08:10:31.998Z,9.57
2017-10-10T08:12:59.772Z,11.23
2017-10-10T08:15:27.774Z,11.30
2017-10-10T08:17:55.624Z,10.60
2017-10-10T08:20:23.399Z,11.53
2017-10-10T08:22:51.174Z,12.30
2017-10-10T08:25:18.986Z,13.93
2017-10-10T08:27:46.702Z,12.70
2017-10-10T08:30:14.475Z,12.47
2017-10-10T08:32:42.282Z,15.30
2017-10-10T08:35:10.042Z,15.27
2017-10-10T08:37:37.766Z,16.50
2017-10-10T08:40:05.683Z,14.43
2017-10-10T08:42:33.460Z,17.13
2017-10-10T08:45:01.199Z,16.00
2017-10-10T08:47:29.687Z,15.93
2017-10-10T08:49:57.416Z,16.13
2017-10-10T08:52:25.143Z,16.60
2017-10-10T08:54:52.971Z,14.37
2017-10-10T08:57:20.773Z,15.40
2017-10-10T08:59:48.490Z,15.57
2017-10-10T09:02:16.284Z,12.50
2017-10-10T09:04:44.045Z,14.03
2017-10-10T09:07:11.866Z,14.57
2017-10-10T09:09:39.672Z,11.50
2017-10-10T09:12:07.461Z,12.73
2017-10-10T09:14:35.197Z,12.60
2017-10-10T09:17:03.052Z,13.00
2017-10-10T09:19:30.832Z,9.87
2017-10-10T09:21:58.547Z,10.97
2017-10-10T09:24:26.373Z,10.30
2017-10-10T09:26:54.087Z,10.53
2017-10-10T09:29:21.962Z,11.13
2017-10-10T09:31:49.847Z,10.47
2017-10-10T09:34:17.641Z,10.63
2017-10-10T09:36:45.489Z,10.07
2017-10-10T09:39:13.288Z,11.20
2017-10-10T09:41:41.036Z,11.10
2017-10-10T09:44:08.851Z,10.90
2017-10-10T09:46:36.733Z,15.43
2017-10-10T09:49:04.512Z,12.47
2017-10-10T09:51:32.319Z,12.27
2017-10-10T09:54:00.186Z,11.77
2017-10-10T09:56:27.938Z,11.97
2017-10-10T09:58:55.738Z,11.83
2017-10-10T10:01:24.258Z,12.93
2017-10-10T10:03:52.044Z,12.07
2017-10-10T10:06:19.883Z,12.10
2017-10-10T10:08:47.652Z,12.97
2017-10-10T10:11:15.481Z,14.00
2017-10-10T10:13:43.251Z,13.10
2017-10-10T10:16:11.869Z,12.70
2017-10-10T10:18:39.650Z,14.60
2017-10-10T10:21:07.389Z,13.60
2017-10-10T10:23:35.271Z,14.80
2017-10-10T10:26:03.005Z,15.47
2017-10-10T10:28:31.518Z,16.17
2017-10-10T10:30:59.305Z,17.30
2017-10-10T10:33:27.100Z,16.83
2017-10-10T10:35:54.905Z,16.70
2017-10-10T10:38:22.726Z,17.70
2017-10-10T10:40:50.462Z,18.80
2017-10-10T10:43:18.262Z,16.23
2017-10-10T10:45:46.087Z,15.60
2017-10-10T10:48:13.808Z,16.27
2017-10-10T10:50:41.593Z,17.77
2017-10-10T10:53:10.191Z,17.80
2017-10-10T10:55:37.983Z,17.30
2017-10-10T10:58:05.724Z,13.53
2017-10-10T11:00:33.553Z,15.87
2017-10-10T11:03:01.336Z,15.77
2017-10-10T11:05:29.162Z,16.97
2017-10-10T11:07:57.044Z,17.80
2017-10-10T11:10:24.844Z,18.87
2017-10-10T11:12:52.642Z,19.87
2017-10-10T11:15:20.452Z,18.90
2017-10-10T11:17:48.191Z,20.17
2017-10-10T11:20:15.974Z,19.50
2017-10-10T11:22:43.783Z,18.50
2017-10-10T11:25:11.616Z,20.97
2017-10-10T11:27:39.418Z,19.70
2017-10-10T11:30:07.196Z,20.60
2017-10-10T11:32:34.930Z,18.63
2017-10-10T11:35:02.665Z,19.20
2017-10-10T11:37:30.600Z,19.00
2017-10-10T11:39:58.328Z,21.10
2017-10-10T11:42:26.118Z,20.07
2017-10-10T11:44:53.891Z,21.57
2017-10-10T11:47:21.611Z,20.77
2017-10-10T11:49:49.328Z,19.67
2017-10-10T11:52:17.244Z,20.47
2017-10-10T11:54:45.061Z,21.60
2017-10-10T11:57:13.570Z,19.70
2017-10-10T11:59:41.398Z,19.30
2017-10-10T12:02:09.195Z,19.37
2017-10-10T12:04:37.411Z,17.50
2017-10-10T12:07:05.279Z,16.53
2017-10-10T12:09:33.058Z,15.37
2017-10-10T12:12:00.776Z,15.10
2017-10-10T12:14:28.616Z,15.70
2017-10-10T12:16:56.401Z,15.37
2017-10-10T12:19:24.133Z,15.90
2017-10-10T12:21:51.872Z,15.77
2017-10-10T12:24:19.658Z,13.90
2017-10-10T12:26:47.460Z,12.60
2017-10-10T12:29:15.215Z,13.17
2017-10-10T12:31:43.068Z,12.17
2017-10-10T12:34:10.849Z,11.87
2017-10-10T12:36:38.817Z,10.93
2017-10-10T12:39:06.643Z,10.97
2017-10-10T12:41:34.388Z,11.90
2017-10-10T12:44:02.181Z,12.50
2017-10-10T12:46:29.976Z,12.23
2017-10-10T12:48:57.792Z,11.33
2017-10-10T12:51:26.343Z,11.90
2017-10-10T12:53:54.067Z,10.40
2017-10-10T12:56:21.812Z,10.83
2017-10-10T12:58:49.752Z,10.50
2017-10-10T13:01:17.560Z,10.20
2017-10-10T13:03:45.344Z,8.70
2017-10-10T13:06:13.166Z,10.00
2017-10-10T13:08:41.664Z,8.50
2017-10-10T13:11:09.379Z,10.10
2017-10-10T13:13:37.103Z,9.50
2017-10-10T13:16:04.893Z,9.33
2017-10-10T13:18:32.620Z,10.33
2017-10-10T13:21:00.427Z,10.83
2017-10-10T13:23:28.165Z,12.83
2017-10-10T13:25:55.906Z,11.50
2017-10-10T13:28:23.986Z,10.80
2017-10-10T13:30:52.601Z,10.43
2017-10-10T13:33:20.605Z,10.07
2017-10-10T13:35:48.494Z,10.60
2017-10-10T13:38:16.371Z,10.03
2017-10-10T13:40:44.205Z,11.17
2017-10-10T13:43:12.010Z,11.97
2017-10-10T13:45:39.813Z,9.37
2017-10-10T13:48:07.780Z,10.57
2017-10-10T13:50:35.666Z,11.43
2017-10-10T13:53:04.481Z,9.00
2017-10-10T13:55:32.277Z,10.60
2017-10-10T13:58:01.020Z,11.43
2017-10-10T14:00:28.924Z,10.53
2017-10-10T14:02:59.912Z,9.53
2017-10-10T14:05:27.838Z,11.00
2017-10-10T14:07:55.616Z,10.50
2017-10-10T14:10:23.381Z,10.57
2017-10-10T14:12:51.325Z,8.37
2017-10-10T14:15:21.186Z,8.20
2017-10-10T14:17:49.114Z,8.43
2017-10-10T14:20:16.949Z,8.10
2017-10-10T14:22:44.736Z,8.20
2017-10-10T14:25:12.758Z,7.87
2017-10-10T14:27:40.509Z,8.30
2017-10-10T14:30:08.265Z,7.33
2017-10-10T14:32:36.018Z,7.10
2017-10-10T14:35:03.802Z,6.83
2017-10-10T14:37:31.693Z,7.00
2017-10-10T14:39:59.590Z,8.10
2017-10-10T14:42:27.421Z,7.00
2017-10-10T14:44:55.320Z,6.53
2017-10-10T14:47:57.902Z,7.37
2017-10-10T14:50:38.148Z,7.00
2017-10-10T14:53:08.091Z,7.50
2017-10-10T14:56:17.932Z,6.70
2017-10-10T14:58:45.704Z,7.67
2017-10-10T15:01:13.433Z,6.20
2017-10-10T15:03:41.173Z,6.30
2017-10-10T15:06:08.992Z,7.90
2017-10-10T15:08:37.504Z,9.43
2017-10-10T15:11:05.351Z,7.80
2017-10-10T15:13:33.127Z,8.07
2017-10-10T15:16:00.841Z,7.00
2017-10-10T15:18:28.662Z,6.20
2017-10-10T15:20:56.434Z,6.47
2017-10-10T15:23:24.207Z,5.93
2017-10-10T15:25:52.012Z,7.50
2017-10-10T15:28:19.758Z,7.07
2017-10-10T15:30:47.558Z,7.10
2017-10-10T15:33:15.466Z,6.87
2017-10-10T15:35:43.196Z,7.07
2017-10-10T15:38:10.913Z,6.60
2017-10-10T15:40:38.730Z,7.47
2017-10-10T15:43:06.451Z,7.00
2017-10-10T15:45:34.192Z,6.27
2017-10-10T15:48:01.965Z,5.77
2017-10-10T15:50:30.076Z,6.80
2017-10-10T15:52:57.793Z,6.60
2017-10-10T15:55:26.389Z,8.17
2017-10-10T15:57:54.156Z,7.40
2017-10-10T16:00:21.946Z,7.17
2017-10-10T16:02:49.842Z,6.07
2017-10-10T16:05:17.635Z,6.33
2017-10-10T16:07:45.414Z,6.80
2017-10-10T16:10:13.991Z,6.67
2017-10-10T16:12:42.526Z,5.70
2017-10-10T16:15:10.293Z,6.77
2017-10-10T16:17:38.078Z,5.53
2017-10-10T16:20:06.562Z,6.37
2017-10-10T16:22:34.436Z,5.90
2017-10-10T16:25:02.215Z,8.27
2017-10-10T16:27:29.953Z,6.87
2017-10-10T16:29:57.773Z,5.67
2017-10-10T16:32:25.616Z,6.67
2017-10-10T16:34:55.262Z,6.23
2017-10-10T16:37:23.019Z,6.93
2017-10-10T16:39:50.850Z,6.30
2017-10-10T16:42:18.604Z,6.87
2017-10-10T16:44:46.397Z,8.17
2017-10-10T16:47:14.123Z,6.67
2017-10-10T16:49:41.928Z,6.67
2017-10-10T16:52:09.666Z,7.07
2017-10-10T16:54:40.138Z,7.43
2017-10-10T16:57:09.343Z,9.00
2017-10-10T16:59:37.552Z,8.10
2017-10-10T17:02:05.304Z,8.43
2017-10-10T17:04:33.089Z,9.17
2017-10-10T17:07:00.923Z,8.50
2017-10-10T17:09:31.825Z,11.20
2017-10-10T17:11:59.824Z,10.13
2017-10-10T17:14:28.390Z,10.70
2017-10-10T17:16:56.271Z,12.13
2017-10-10T17:19:24.064Z,10.50
2017-10-10T17:21:52.640Z,11.07
2017-10-10T17:24:20.528Z,10.50
2017-10-10T17:26:48.248Z,9.03
2017-10-10T17:29:16.016Z,9.60
2017-10-10T17:31:43.727Z,9.20
2017-10-10T17:34:11.533Z,10.53
2017-10-10T17:36:39.319Z,10.60
2017-10-10T17:39:07.201Z,10.53
2017-10-10T17:41:34.976Z,10.60
2017-10-10T17:44:02.748Z,9.17
2017-10-10T17:46:30.493Z,10.20
2017-10-10T17:48:58.235Z,9.13
2017-10-10T17:51:26.035Z,10.20
2017-10-10T17:53:53.764Z,10.70
2017-10-10T17:56:21.497Z,11.80
2017-10-10T17:58:49.282Z,9.77
2017-10-10T18:01:17.137Z,11.53
2017-10-10T18:03:44.912Z,10.47
2017-10-10T18:06:12.694Z,11.47
2017-10-10T18:08:40.570Z,11.67
2017-10-10T18:11:08.307Z,12.90
2017-10-10T18:13:36.033Z,11.93
2017-10-10T18:16:03.765Z,12.90
2017-10-10T18:18:31.498Z,13.33
2017-10-10T18:20:59.281Z,13.43
2017-10-10T18:23:27.019Z,13.67
2017-10-10T18:25:54.819Z,13.43
2017-10-10T18:28:23.368Z,15.77
2017-10-10T18:30:51.288Z,15.13
2017-10-10T18:33:19.089Z,14.90
2017-10-10T18:35:46.980Z,14.33
2017-10-10T18:38:14.856Z,15.03
2017-10-10T18:40:42.611Z,23.27
2017-10-10T18:43:10.434Z,15.97
2017-10-10T18:45:38.284Z,15.40
2017-10-10T18:48:06.021Z,16.33
2017-10-10T18:50:33.794Z,17.80
2017-10-10T18:53:01.596Z,17.20
2017-10-10T18:55:29.427Z,15.90
2017-10-10T18:57:57.244Z,18.20
2017-10-10T19:00:25.965Z,17.63
2017-10-10T19:02:53.813Z,17.23
2017-10-10T19:05:21.701Z,15.50
2017-10-10T19:07:50.278Z,16.70
2017-10-10T19:10:18.935Z,14.97
2017-10-10T19:12:46.748Z,16.43
2017-10-10T19:15:14.575Z,15.67
2017-10-10T19:17:42.337Z,16.53
2017-10-10T19:20:10.220Z,17.93
2017-10-10T19:22:38.093Z,23.90
2017-10-10T19:25:05.944Z,16.80
2017-10-10T19:30:06.415Z,19.97
2017-10-10T19:32:34.834Z,16.50
2017-10-10T19:35:03.242Z,16.17
2017-10-10T19:37:31.002Z,13.53
2017-10-10T19:39:58.951Z,17.07
2017-10-10T19:42:26.743Z,16.50
2017-10-10T19:44:54.562Z,15.67
2017-10-10T19:47:22.637Z,22.67
2017-10-10T19:49:50.451Z,16.23
2017-10-10T19:52:18.257Z,15.93
2017-10-10T19:54:46.092Z,15.10
2017-10-10T19:57:13.931Z,15.50
2017-10-10T19:59:41.795Z,16.10
2017-10-10T20:02:10.441Z,15.30
2017-10-10T20:04:38.201Z,16.53
2017-10-10T20:07:05.991Z,16.50
2017-10-10T20:09:33.725Z,18.17
2017-10-10T20:12:01.467Z,16.93
2017-10-10T20:14:29.194Z,15.83
2017-10-10T20:16:56.957Z,15.90
2017-10-10T20:19:24.714Z,16.70
2017-10-10T20:21:52.515Z,16.33
2017-10-10T20:24:20.333Z,16.17
2017-10-10T20:26:48.116Z,16.10
2017-10-10T20:29:15.912Z,14.00
2017-10-10T20:31:45.574Z,15.80
2017-10-10T20:34:13.373Z,15.80
2017-10-10T20:36:41.155Z,14.77
2017-10-10T20:39:08.966Z,14.43
2017-10-10T20:41:36.762Z,14.83
2017-10-10T20:44:04.678Z,16.50
2017-10-10T20:46:32.484Z,16.33
2017-10-10T20:49:00.290Z,17.30
2017-10-10T20:51:29.051Z,17.63
2017-10-10T20:53:56.951Z,17.73
2017-10-10T20:56:24.752Z,16.70
2017-10-10T20:58:52.482Z,18.83
2017-10-10T21:01:21.812Z,17.70
2017-10-10T21:03:49.682Z,22.30
2017-10-10T21:06:17.525Z,20.57
2017-10-10T21:08:53.890Z,18.10
2017-10-10T21:11:21.906Z,16.80
2017-10-10T21:13:49.879Z,16.40
2017-10-10T21:16:21.084Z,16.33
2017-10-10T21:18:49.583Z,25.13
2017-10-10T21:21:17.476Z,20.30
2017-10-10T21:23:45.287Z,17.90
2017-10-10T21:26:13.076Z,16.90
2017-10-10T21:28:42.596Z,18.93
2017-10-10T21:31:10.402Z,18.07
2017-10-10T21:33:39.427Z,16.10
2017-10-10T21:36:08.349Z,17.03
2017-10-10T21:38:36.979Z,17.37
2017-10-10T21:41:05.688Z,16.87
2017-10-10T21:43:33.558Z,17.80
2017-10-10T21:46:01.351Z,16.43
2017-10-10T21:48:31.174Z,16.27
2017-10-10T21:50:59.017Z,17.00
2017-10-10T21:53:27.006Z,16.03
2017-10-10T21:55:54.921Z,16.67
2017-10-10T21:58:22.709Z,16.60
2017-10-10T22:00:50.544Z,16.20
2017-10-10T22:03:19.490Z,18.20
2017-10-10T22:05:47.227Z,16.20
2017-10-10T22:08:15.031Z,17.23
2017-10-10T22:10:43.089Z,17.00
2017-10-10T22:13:10.879Z,16.23
2017-10-10T22:15:38.660Z,16.40
2017-10-10T22:18:07.174Z,17.10
2017-10-10T22:20:34.940Z,16.57
2017-10-10T22:23:02.684Z,15.40
2017-10-10T22:25:30.482Z,14.60
2017-10-10T22:27:58.255Z,14.53
2017-10-10T22:30:26.025Z,14.90
2017-10-10T22:32:53.768Z,13.43
2017-10-10T22:35:21.553Z,14.10
2017-10-10T22:37:49.361Z,14.00
2017-10-10T22:40:17.097Z,13.40
2017-10-10T22:42:44.876Z,13.40
2017-10-10T22:45:12.630Z,14.93
2017-10-10T22:47:40.354Z,15.23
2017-10-10T22:50:08.141Z,17.10
2017-10-10T22:52:35.867Z,17.87
2017-10-10T22:55:03.777Z,18.00
2017-10-10T22:57:31.519Z,18.23
2017-10-10T22:59:59.287Z,18.00
2017-10-10T23:02:27.104Z,16.60
2017-10-10T23:04:54.923Z,17.73
2017-10-10T23:07:22.717Z,18.47
2017-10-10T23:09:50.524Z,17.37
2017-10-10T23:12:18.304Z,17.23
2017-10-10T23:14:46.083Z,17.63
2017-10-10T23:17:14.003Z,19.40
2017-10-10T23:19:41.740Z,21.20
2017-10-10T23:22:09.561Z,21.63
2017-10-10T23:24:37.376Z,20.37
2017-10-10T23:27:05.183Z,23.50
2017-10-10T23:29:33.924Z,22.20
2017-10-10T23:32:01.823Z,19.57
2017-10-10T23:34:29.630Z,20.10
2017-10-10T23:36:57.368Z,19.20
2017-10-10T23:39:25.268Z,17.97
2017-10-10T23:41:53.013Z,18.30
2017-10-10T23:44:20.743Z,18.23
2017-10-10T23:46:48.648Z,16.73
2017-10-10T23:49:16.376Z,18.10
2017-10-10T23:51:44.124Z,14.97
2017-10-10T23:54:11.931Z,15.50
2017-10-10T23:56:39.716Z,15.17
2017-10-10T23:59:07.461Z,14.70
